sensor_id;sensor_type;location;lat;lon;timestamp;P1;durP1;ratioP1;P2;durP2;ratioP2
71164;SDS011;58859;55.132;-1.586;2024-03-02T00:02:12;9.57;;;5.68;;
71164;SDS011;58859;55.132;-1.586;2024-03-02T00:04:39;13.20;;;7.00;;
71164;SDS011;58859;55.132;-1.586;2024-03-02T00:07:04;12.13;;;5.85;;
71164;SDS011;58859;55.132;-1.586;2024-03-02T00:09:31;16.00;;;8.73;;
71164;SDS011;58859;55.132;-1.586;2024-03-02T00:11:57;10.83;;;6.10;;
71164;SDS011;58859;55.132;-1.586;2024-03-02T00:14:22;13.95;;;6.60;;
71164;SDS011;58859;55.132;-1.586;2024-03-02T00:16:49;12.80;;;7.80;;
71164;SDS011;58859;55.132;-1.586;2024-03-02T00:19:16;15.40;;;8.68;;
71164;SDS011;58859;55.132;-1.586;2024-03-02T00:21:42;16.25;;;8.75;;
71164;SDS011;58859;55.132;-1.586;2024-03-02T00:24:12;13.17;;;8.03;;
71164;SDS011;58859;55.132;-1.586;2024-03-02T00:26:45;16.33;;;8.85;;
71164;SDS011;58859;55.132;-1.586;2024-03-02T00:29:11;15.13;;;8.83;;
71164;SDS011;58859;55.132;-1.586;2024-03-02T00:31:41;14.98;;;8.57;;
71164;SDS011;58859;55.132;-1.586;2024-03-02T00:34:06;17.33;;;9.23;;
71164;SDS011;58859;55.132;-1.586;2024-03-02T00:36:32;15.32;;;8.40;;
71164;SDS011;58859;55.132;-1.586;2024-03-02T00:38:58;19.83;;;9.17;;
71164;SDS011;58859;55.132;-1.586;2024-03-02T00:44:02;18.37;;;9.60;;
71164;SDS011;58859;55.132;-1.586;2024-03-02T00:46:33;17.90;;;9.38;;
71164;SDS011;58859;55.132;-1.586;2024-03-02T00:49:01;17.75;;;10.38;;
71164;SDS011;58859;55.132;-1.586;2024-03-02T00:51:36;25.20;;;11.07;;
71164;SDS011;58859;55.132;-1.586;2024-03-02T00:54:05;22.08;;;11.02;;
71164;SDS011;58859;55.132;-1.586;2024-03-02T00:56:33;33.80;;;14.48;;
71164;SDS011;58859;55.132;-1.586;2024-03-02T00:58:59;29.10;;;12.68;;
71164;SDS011;58859;55.132;-1.586;2024-03-02T01:01:25;21.20;;;9.80;;
71164;SDS011;58859;55.132;-1.586;2024-03-02T01:03:50;17.27;;;10.07;;
71164;SDS011;58859;55.132;-1.586;2024-03-02T01:06:17;21.98;;;9.95;;
71164;SDS011;58859;55.132;-1.586;2024-03-02T01:08:44;18.30;;;9.43;;
71164;SDS011;58859;55.132;-1.586;2024-03-02T01:11:09;24.60;;;10.70;;
71164;SDS011;58859;55.132;-1.586;2024-03-02T01:13:35;19.40;;;10.63;;
71164;SDS011;58859;55.132;-1.586;2024-03-02T01:16:01;23.13;;;10.30;;
71164;SDS011;58859;55.132;-1.586;2024-03-02T01:18:27;19.65;;;11.20;;
71164;SDS011;58859;55.132;-1.586;2024-03-02T01:20:53;18.90;;;9.47;;
71164;SDS011;58859;55.132;-1.586;2024-03-02T01:23:21;21.33;;;9.82;;
71164;SDS011;58859;55.132;-1.586;2024-03-02T01:25:47;20.63;;;9.60;;
71164;SDS011;58859;55.132;-1.586;2024-03-02T01:28:13;18.20;;;9.83;;
71164;SDS011;58859;55.132;-1.586;2024-03-02T01:30:39;15.38;;;9.32;;
71164;SDS011;58859;55.132;-1.586;2024-03-02T01:33:04;15.80;;;7.97;;
71164;SDS011;58859;55.132;-1.586;2024-03-02T01:35:30;18.23;;;9.60;;
71164;SDS011;58859;55.132;-1.586;2024-03-02T01:37:56;19.70;;;9.52;;
71164;SDS011;58859;55.132;-1.586;2024-03-02T01:40:22;18.13;;;9.93;;
71164;SDS011;58859;55.132;-1.586;2024-03-02T01:42:51;21.38;;;10.07;;
71164;SDS011;58859;55.132;-1.586;2024-03-02T01:45:17;18.53;;;9.80;;
71164;SDS011;58859;55.132;-1.586;2024-03-02T01:47:42;19.52;;;9.63;;
71164;SDS011;58859;55.132;-1.586;2024-03-02T01:50:08;18.10;;;9.43;;
71164;SDS011;58859;55.132;-1.586;2024-03-02T01:52:36;16.85;;;9.10;;
71164;SDS011;58859;55.132;-1.586;2024-03-02T01:55:01;21.90;;;10.10;;
71164;SDS011;58859;55.132;-1.586;2024-03-02T01:57:28;16.88;;;9.73;;
71164;SDS011;58859;55.132;-1.586;2024-03-02T01:59:54;15.17;;;8.63;;
71164;SDS011;58859;55.132;-1.586;2024-03-02T02:02:20;16.48;;;9.90;;
71164;SDS011;58859;55.132;-1.586;2024-03-02T02:04:45;15.50;;;9.00;;
71164;SDS011;58859;55.132;-1.586;2024-03-02T02:07:11;15.93;;;9.10;;
71164;SDS011;58859;55.132;-1.586;2024-03-02T02:09:36;17.10;;;9.68;;
71164;SDS011;58859;55.132;-1.586;2024-03-02T02:12:02;15.73;;;8.18;;
71164;SDS011;58859;55.132;-1.586;2024-03-02T02:14:29;15.87;;;9.03;;
71164;SDS011;58859;55.132;-1.586;2024-03-02T02:16:55;14.18;;;8.45;;
71164;SDS011;58859;55.132;-1.586;2024-03-02T02:19:20;16.53;;;8.60;;
71164;SDS011;58859;55.132;-1.586;2024-03-02T02:21:46;14.87;;;8.27;;
71164;SDS011;58859;55.132;-1.586;2024-03-02T02:24:11;15.70;;;9.10;;
71164;SDS011;58859;55.132;-1.586;2024-03-02T02:26:38;16.92;;;8.48;;
71164;SDS011;58859;55.132;-1.586;2024-03-02T02:29:04;17.73;;;9.13;;
71164;SDS011;58859;55.132;-1.586;2024-03-02T02:31:38;14.90;;;8.60;;
71164;SDS011;58859;55.132;-1.586;2024-03-02T02:34:05;16.13;;;8.75;;
71164;SDS011;58859;55.132;-1.586;2024-03-02T02:36:31;13.93;;;7.60;;
71164;SDS011;58859;55.132;-1.586;2024-03-02T02:38:59;16.70;;;8.20;;
71164;SDS011;58859;55.132;-1.586;2024-03-02T02:41:28;16.13;;;9.15;;
71164;SDS011;58859;55.132;-1.586;2024-03-02T02:43:54;14.85;;;8.82;;
71164;SDS011;58859;55.132;-1.586;2024-03-02T02:46:20;14.60;;;7.93;;
71164;SDS011;58859;55.132;-1.586;2024-03-02T02:48:45;15.50;;;8.80;;
71164;SDS011;58859;55.132;-1.586;2024-03-02T02:51:11;15.43;;;9.07;;
71164;SDS011;58859;55.132;-1.586;2024-03-02T02:53:36;13.23;;;8.20;;
71164;SDS011;58859;55.132;-1.586;2024-03-02T02:56:05;15.15;;;9.10;;
71164;SDS011;58859;55.132;-1.586;2024-03-02T02:58:31;14.60;;;8.57;;
71164;SDS011;58859;55.132;-1.586;2024-03-02T03:00:56;15.57;;;8.60;;
71164;SDS011;58859;55.132;-1.586;2024-03-02T03:03:22;16.53;;;8.57;;
71164;SDS011;58859;55.132;-1.586;2024-03-02T03:05:48;14.17;;;8.63;;
71164;SDS011;58859;55.132;-1.586;2024-03-02T03:08:13;16.40;;;8.32;;
71164;SDS011;58859;55.132;-1.586;2024-03-02T03:10:40;14.88;;;8.55;;
71164;SDS011;58859;55.132;-1.586;2024-03-02T03:13:06;13.80;;;8.20;;
71164;SDS011;58859;55.132;-1.586;2024-03-02T03:15:33;18.80;;;9.25;;
71164;SDS011;58859;55.132;-1.586;2024-03-02T03:18:00;18.08;;;9.30;;
71164;SDS011;58859;55.132;-1.586;2024-03-02T03:20:25;14.07;;;8.07;;
71164;SDS011;58859;55.132;-1.586;2024-03-02T03:22:50;18.50;;;8.40;;
71164;SDS011;58859;55.132;-1.586;2024-03-02T03:25:16;14.10;;;8.30;;
71164;SDS011;58859;55.132;-1.586;2024-03-02T03:27:41;16.53;;;8.83;;
71164;SDS011;58859;55.132;-1.586;2024-03-02T03:30:07;13.05;;;8.23;;
71164;SDS011;58859;55.132;-1.586;2024-03-02T03:32:32;14.27;;;9.13;;
71164;SDS011;58859;55.132;-1.586;2024-03-02T03:34:58;15.83;;;9.37;;
71164;SDS011;58859;55.132;-1.586;2024-03-02T03:37:23;16.00;;;8.90;;
71164;SDS011;58859;55.132;-1.586;2024-03-02T03:39:50;16.33;;;8.80;;
71164;SDS011;58859;55.132;-1.586;2024-03-02T03:42:16;14.77;;;9.00;;
71164;SDS011;58859;55.132;-1.586;2024-03-02T03:44:41;15.50;;;9.73;;
71164;SDS011;58859;55.132;-1.586;2024-03-02T03:47:07;13.93;;;8.83;;
71164;SDS011;58859;55.132;-1.586;2024-03-02T03:49:32;15.83;;;9.40;;
71164;SDS011;58859;55.132;-1.586;2024-03-02T03:51:58;18.90;;;9.88;;
71164;SDS011;58859;55.132;-1.586;2024-03-02T03:54:23;17.00;;;9.60;;
71164;SDS011;58859;55.132;-1.586;2024-03-02T03:56:48;15.93;;;8.77;;
71164;SDS011;58859;55.132;-1.586;2024-03-02T03:59:14;16.97;;;8.90;;
71164;SDS011;58859;55.132;-1.586;2024-03-02T04:01:39;19.17;;;9.40;;
71164;SDS011;58859;55.132;-1.586;2024-03-02T04:04:05;14.27;;;8.63;;
71164;SDS011;58859;55.132;-1.586;2024-03-02T04:06:30;17.60;;;9.15;;
71164;SDS011;58859;55.132;-1.586;2024-03-02T04:08:55;20.50;;;10.25;;
71164;SDS011;58859;55.132;-1.586;2024-03-02T04:11:21;19.43;;;10.03;;
71164;SDS011;58859;55.132;-1.586;2024-03-02T04:13:47;17.23;;;9.67;;
71164;SDS011;58859;55.132;-1.586;2024-03-02T04:16:12;17.40;;;9.88;;
71164;SDS011;58859;55.132;-1.586;2024-03-02T04:18:38;19.63;;;9.97;;
71164;SDS011;58859;55.132;-1.586;2024-03-02T04:21:04;17.63;;;9.77;;
71164;SDS011;58859;55.132;-1.586;2024-03-02T04:23:30;18.30;;;9.53;;
71164;SDS011;58859;55.132;-1.586;2024-03-02T04:25:55;17.98;;;9.07;;
71164;SDS011;58859;55.132;-1.586;2024-03-02T04:28:21;17.23;;;8.93;;
71164;SDS011;58859;55.132;-1.586;2024-03-02T04:30:46;19.07;;;9.67;;
71164;SDS011;58859;55.132;-1.586;2024-03-02T04:33:11;18.73;;;8.57;;
71164;SDS011;58859;55.132;-1.586;2024-03-02T04:35:37;15.80;;;9.13;;
71164;SDS011;58859;55.132;-1.586;2024-03-02T04:38:02;18.17;;;9.88;;
71164;SDS011;58859;55.132;-1.586;2024-03-02T04:40:28;18.25;;;8.60;;
71164;SDS011;58859;55.132;-1.586;2024-03-02T04:42:53;18.43;;;9.17;;
71164;SDS011;58859;55.132;-1.586;2024-03-02T04:45:19;16.73;;;9.00;;
71164;SDS011;58859;55.132;-1.586;2024-03-02T04:47:44;18.70;;;9.77;;
71164;SDS011;58859;55.132;-1.586;2024-03-02T04:50:10;20.33;;;9.25;;
71164;SDS011;58859;55.132;-1.586;2024-03-02T04:52:35;14.83;;;8.70;;
71164;SDS011;58859;55.132;-1.586;2024-03-02T04:55:01;17.50;;;9.23;;
71164;SDS011;58859;55.132;-1.586;2024-03-02T04:58:02;17.20;;;8.67;;
71164;SDS011;58859;55.132;-1.586;2024-03-02T05:00:28;15.88;;;8.90;;
71164;SDS011;58859;55.132;-1.586;2024-03-02T05:02:53;15.37;;;8.83;;
71164;SDS011;58859;55.132;-1.586;2024-03-02T05:05:18;18.33;;;9.10;;
71164;SDS011;58859;55.132;-1.586;2024-03-02T05:07:44;16.83;;;8.97;;
71164;SDS011;58859;55.132;-1.586;2024-03-02T05:10:09;18.58;;;9.45;;
71164;SDS011;58859;55.132;-1.586;2024-03-02T05:12:36;16.73;;;8.63;;
71164;SDS011;58859;55.132;-1.586;2024-03-02T05:15:08;13.38;;;7.95;;
71164;SDS011;58859;55.132;-1.586;2024-03-02T05:17:35;15.05;;;8.98;;
71164;SDS011;58859;55.132;-1.586;2024-03-02T05:20:01;15.10;;;8.48;;
71164;SDS011;58859;55.132;-1.586;2024-03-02T05:22:27;15.47;;;8.23;;
71164;SDS011;58859;55.132;-1.586;2024-03-02T05:24:53;12.98;;;7.68;;
71164;SDS011;58859;55.132;-1.586;2024-03-02T05:27:18;15.13;;;7.80;;
71164;SDS011;58859;55.132;-1.586;2024-03-02T05:29:44;15.67;;;7.67;;
71164;SDS011;58859;55.132;-1.586;2024-03-02T05:32:09;16.73;;;7.50;;
71164;SDS011;58859;55.132;-1.586;2024-03-02T05:34:34;15.70;;;8.38;;
71164;SDS011;58859;55.132;-1.586;2024-03-02T05:37:00;17.07;;;9.13;;
71164;SDS011;58859;55.132;-1.586;2024-03-02T05:39:26;13.90;;;8.15;;
71164;SDS011;58859;55.132;-1.586;2024-03-02T05:41:52;13.00;;;7.47;;
71164;SDS011;58859;55.132;-1.586;2024-03-02T05:44:17;14.80;;;8.50;;
71164;SDS011;58859;55.132;-1.586;2024-03-02T05:46:43;16.02;;;7.90;;
71164;SDS011;58859;55.132;-1.586;2024-03-02T05:49:09;14.65;;;7.47;;
71164;SDS011;58859;55.132;-1.586;2024-03-02T05:51:35;15.87;;;9.20;;
71164;SDS011;58859;55.132;-1.586;2024-03-02T05:54:00;17.77;;;8.55;;
71164;SDS011;58859;55.132;-1.586;2024-03-02T05:56:26;17.83;;;8.50;;
71164;SDS011;58859;55.132;-1.586;2024-03-02T05:58:51;16.57;;;8.40;;
71164;SDS011;58859;55.132;-1.586;2024-03-02T06:01:33;17.45;;;7.57;;
71164;SDS011;58859;55.132;-1.586;2024-03-02T06:03:59;19.45;;;8.38;;
71164;SDS011;58859;55.132;-1.586;2024-03-02T06:06:25;16.65;;;8.57;;
71164;SDS011;58859;55.132;-1.586;2024-03-02T06:08:51;20.27;;;8.67;;
71164;SDS011;58859;55.132;-1.586;2024-03-02T06:11:16;17.92;;;8.18;;
71164;SDS011;58859;55.132;-1.586;2024-03-02T06:13:42;13.82;;;8.60;;
71164;SDS011;58859;55.132;-1.586;2024-03-02T06:16:08;13.83;;;7.33;;
71164;SDS011;58859;55.132;-1.586;2024-03-02T06:18:33;17.53;;;8.30;;
71164;SDS011;58859;55.132;-1.586;2024-03-02T06:20:59;15.88;;;8.57;;
71164;SDS011;58859;55.132;-1.586;2024-03-02T06:23:26;15.13;;;9.05;;
71164;SDS011;58859;55.132;-1.586;2024-03-02T06:25:51;16.90;;;8.05;;
71164;SDS011;58859;55.132;-1.586;2024-03-02T06:28:17;17.40;;;9.13;;
71164;SDS011;58859;55.132;-1.586;2024-03-02T06:30:43;15.83;;;8.53;;
71164;SDS011;58859;55.132;-1.586;2024-03-02T06:33:08;17.63;;;8.60;;
71164;SDS011;58859;55.132;-1.586;2024-03-02T06:35:34;16.63;;;8.77;;
71164;SDS011;58859;55.132;-1.586;2024-03-02T06:38:00;17.98;;;9.88;;
71164;SDS011;58859;55.132;-1.586;2024-03-02T06:40:26;18.85;;;9.77;;
71164;SDS011;58859;55.132;-1.586;2024-03-02T06:42:51;19.80;;;8.93;;
71164;SDS011;58859;55.132;-1.586;2024-03-02T06:45:17;17.10;;;8.00;;
71164;SDS011;58859;55.132;-1.586;2024-03-02T06:47:42;17.20;;;9.13;;
71164;SDS011;58859;55.132;-1.586;2024-03-02T06:50:08;15.63;;;9.35;;
71164;SDS011;58859;55.132;-1.586;2024-03-02T06:52:34;19.83;;;8.97;;
71164;SDS011;58859;55.132;-1.586;2024-03-02T06:55:00;18.42;;;9.48;;
71164;SDS011;58859;55.132;-1.586;2024-03-02T06:57:25;16.17;;;8.47;;
71164;SDS011;58859;55.132;-1.586;2024-03-02T06:59:51;18.23;;;9.80;;
71164;SDS011;58859;55.132;-1.586;2024-03-02T07:02:19;22.23;;;9.68;;
71164;SDS011;58859;55.132;-1.586;2024-03-02T07:04:44;16.87;;;9.13;;
71164;SDS011;58859;55.132;-1.586;2024-03-02T07:07:10;16.63;;;9.75;;
71164;SDS011;58859;55.132;-1.586;2024-03-02T07:09:36;17.08;;;9.90;;
71164;SDS011;58859;55.132;-1.586;2024-03-02T07:12:01;15.03;;;8.23;;
71164;SDS011;58859;55.132;-1.586;2024-03-02T07:14:27;16.33;;;9.67;;
71164;SDS011;58859;55.132;-1.586;2024-03-02T07:17:12;14.82;;;8.98;;
71164;SDS011;58859;55.132;-1.586;2024-03-02T07:19:38;18.77;;;9.27;;
71164;SDS011;58859;55.132;-1.586;2024-03-02T07:22:07;15.88;;;9.45;;
71164;SDS011;58859;55.132;-1.586;2024-03-02T07:24:38;15.40;;;8.32;;
71164;SDS011;58859;55.132;-1.586;2024-03-02T07:27:05;16.60;;;8.70;;
71164;SDS011;58859;55.132;-1.586;2024-03-02T07:29:31;19.25;;;8.68;;
71164;SDS011;58859;55.132;-1.586;2024-03-02T07:31:56;18.27;;;8.27;;
71164;SDS011;58859;55.132;-1.586;2024-03-02T07:34:21;14.27;;;7.37;;
71164;SDS011;58859;55.132;-1.586;2024-03-02T07:36:47;16.50;;;7.93;;
71164;SDS011;58859;55.132;-1.586;2024-03-02T07:39:12;18.58;;;9.15;;
71164;SDS011;58859;55.132;-1.586;2024-03-02T07:41:38;17.92;;;8.25;;
71164;SDS011;58859;55.132;-1.586;2024-03-02T07:44:03;17.57;;;8.67;;
71164;SDS011;58859;55.132;-1.586;2024-03-02T07:46:29;17.90;;;8.60;;
71164;SDS011;58859;55.132;-1.586;2024-03-02T07:48:54;18.37;;;9.57;;
71164;SDS011;58859;55.132;-1.586;2024-03-02T07:51:19;17.52;;;8.80;;
71164;SDS011;58859;55.132;-1.586;2024-03-02T07:53:45;15.67;;;7.77;;
71164;SDS011;58859;55.132;-1.586;2024-03-02T07:56:10;18.43;;;8.97;;
71164;SDS011;58859;55.132;-1.586;2024-03-02T07:58:36;16.73;;;8.37;;
71164;SDS011;58859;55.132;-1.586;2024-03-02T08:01:01;16.85;;;8.63;;
71164;SDS011;58859;55.132;-1.586;2024-03-02T08:03:27;15.67;;;7.97;;
71164;SDS011;58859;55.132;-1.586;2024-03-02T08:05:52;18.27;;;8.43;;
71164;SDS011;58859;55.132;-1.586;2024-03-02T08:08:18;14.68;;;7.88;;
71164;SDS011;58859;55.132;-1.586;2024-03-02T08:10:43;18.67;;;8.63;;
71164;SDS011;58859;55.132;-1.586;2024-03-02T08:13:09;18.57;;;8.77;;
71164;SDS011;58859;55.132;-1.586;2024-03-02T08:15:34;16.63;;;8.10;;
71164;SDS011;58859;55.132;-1.586;2024-03-02T08:18:00;18.90;;;9.05;;
71164;SDS011;58859;55.132;-1.586;2024-03-02T08:20:25;16.57;;;7.77;;
71164;SDS011;58859;55.132;-1.586;2024-03-02T08:22:51;19.50;;;8.97;;
71164;SDS011;58859;55.132;-1.586;2024-03-02T08:25:19;17.25;;;9.10;;
71164;SDS011;58859;55.132;-1.586;2024-03-02T08:27:44;19.27;;;9.93;;
71164;SDS011;58859;55.132;-1.586;2024-03-02T08:30:09;21.03;;;9.13;;
71164;SDS011;58859;55.132;-1.586;2024-03-02T08:32:35;19.60;;;9.80;;
71164;SDS011;58859;55.132;-1.586;2024-03-02T08:35:01;20.10;;;10.13;;
71164;SDS011;58859;55.132;-1.586;2024-03-02T08:37:26;19.00;;;10.00;;
71164;SDS011;58859;55.132;-1.586;2024-03-02T08:39:52;17.83;;;10.23;;
71164;SDS011;58859;55.132;-1.586;2024-03-02T08:42:17;18.03;;;9.77;;
71164;SDS011;58859;55.132;-1.586;2024-03-02T08:44:43;19.70;;;9.38;;
71164;SDS011;58859;55.132;-1.586;2024-03-02T08:47:08;18.85;;;9.55;;
71164;SDS011;58859;55.132;-1.586;2024-03-02T08:49:34;21.50;;;9.07;;
71164;SDS011;58859;55.132;-1.586;2024-03-02T08:52:00;18.67;;;10.05;;
71164;SDS011;58859;55.132;-1.586;2024-03-02T08:54:25;16.60;;;9.10;;
71164;SDS011;58859;55.132;-1.586;2024-03-02T08:56:51;16.27;;;8.70;;
71164;SDS011;58859;55.132;-1.586;2024-03-02T08:59:16;20.03;;;9.63;;
71164;SDS011;58859;55.132;-1.586;2024-03-02T09:01:42;16.90;;;8.52;;
71164;SDS011;58859;55.132;-1.586;2024-03-02T09:04:08;16.60;;;8.80;;
71164;SDS011;58859;55.132;-1.586;2024-03-02T09:06:34;15.40;;;8.17;;
71164;SDS011;58859;55.132;-1.586;2024-03-02T09:08:59;15.23;;;8.05;;
71164;SDS011;58859;55.132;-1.586;2024-03-02T09:11:25;17.90;;;9.10;;
71164;SDS011;58859;55.132;-1.586;2024-03-02T09:13:51;17.73;;;8.50;;
71164;SDS011;58859;55.132;-1.586;2024-03-02T09:16:18;15.32;;;9.50;;
71164;SDS011;58859;55.132;-1.586;2024-03-02T09:18:43;14.37;;;8.60;;
71164;SDS011;58859;55.132;-1.586;2024-03-02T09:21:09;18.63;;;9.83;;
71164;SDS011;58859;55.132;-1.586;2024-03-02T09:23:35;18.77;;;9.05;;
71164;SDS011;58859;55.132;-1.586;2024-03-02T09:26:00;15.90;;;7.97;;
71164;SDS011;58859;55.132;-1.586;2024-03-02T09:28:25;15.30;;;8.23;;
71164;SDS011;58859;55.132;-1.586;2024-03-02T09:30:51;19.50;;;9.23;;
71164;SDS011;58859;55.132;-1.586;2024-03-02T09:33:16;20.37;;;8.97;;
71164;SDS011;58859;55.132;-1.586;2024-03-02T09:35:42;16.87;;;8.60;;
71164;SDS011;58859;55.132;-1.586;2024-03-02T09:38:07;17.43;;;8.07;;
71164;SDS011;58859;55.132;-1.586;2024-03-02T09:40:33;15.80;;;8.17;;
71164;SDS011;58859;55.132;-1.586;2024-03-02T09:42:58;14.43;;;7.80;;
71164;SDS011;58859;55.132;-1.586;2024-03-02T09:45:26;15.03;;;8.63;;
71164;SDS011;58859;55.132;-1.586;2024-03-02T09:47:51;15.38;;;7.97;;
71164;SDS011;58859;55.132;-1.586;2024-03-02T09:50:17;16.43;;;8.17;;
71164;SDS011;58859;55.132;-1.586;2024-03-02T09:52:42;14.00;;;8.00;;
71164;SDS011;58859;55.132;-1.586;2024-03-02T09:55:09;15.03;;;7.63;;
71164;SDS011;58859;55.132;-1.586;2024-03-02T09:57:36;16.85;;;8.38;;
71164;SDS011;58859;55.132;-1.586;2024-03-02T10:00:02;15.17;;;7.80;;
71164;SDS011;58859;55.132;-1.586;2024-03-02T10:02:28;14.52;;;7.30;;
71164;SDS011;58859;55.132;-1.586;2024-03-02T10:04:53;14.13;;;7.17;;
71164;SDS011;58859;55.132;-1.586;2024-03-02T10:07:19;10.88;;;6.70;;
71164;SDS011;58859;55.132;-1.586;2024-03-02T10:09:45;14.03;;;7.10;;
71164;SDS011;58859;55.132;-1.586;2024-03-02T10:12:12;12.40;;;6.70;;
71164;SDS011;58859;55.132;-1.586;2024-03-02T10:14:39;10.88;;;6.43;;
71164;SDS011;58859;55.132;-1.586;2024-03-02T10:17:08;10.63;;;5.70;;
71164;SDS011;58859;55.132;-1.586;2024-03-02T10:19:35;9.40;;;5.70;;
71164;SDS011;58859;55.132;-1.586;2024-03-02T10:22:03;13.07;;;7.20;;
71164;SDS011;58859;55.132;-1.586;2024-03-02T10:24:43;11.57;;;6.38;;
71164;SDS011;58859;55.132;-1.586;2024-03-02T10:27:10;10.35;;;6.25;;
71164;SDS011;58859;55.132;-1.586;2024-03-02T10:29:40;11.13;;;6.03;;
71164;SDS011;58859;55.132;-1.586;2024-03-02T10:32:08;8.33;;;5.27;;
71164;SDS011;58859;55.132;-1.586;2024-03-02T10:34:36;8.63;;;5.28;;
71164;SDS011;58859;55.132;-1.586;2024-03-02T10:37:02;8.43;;;5.38;;
71164;SDS011;58859;55.132;-1.586;2024-03-02T10:39:28;9.57;;;4.90;;
71164;SDS011;58859;55.132;-1.586;2024-03-02T10:41:55;7.60;;;4.55;;
71164;SDS011;58859;55.132;-1.586;2024-03-02T10:44:21;7.82;;;4.60;;
71164;SDS011;58859;55.132;-1.586;2024-03-02T10:46:47;7.93;;;4.35;;
71164;SDS011;58859;55.132;-1.586;2024-03-02T10:49:15;12.13;;;5.20;;
71164;SDS011;58859;55.132;-1.586;2024-03-02T10:51:42;6.88;;;4.70;;
71164;SDS011;58859;55.132;-1.586;2024-03-02T10:54:07;7.53;;;4.30;;
71164;SDS011;58859;55.132;-1.586;2024-03-02T10:56:34;9.33;;;4.50;;
71164;SDS011;58859;55.132;-1.586;2024-03-02T11:01:51;9.30;;;5.13;;
71164;SDS011;58859;55.132;-1.586;2024-03-02T11:04:21;9.30;;;5.20;;
71164;SDS011;58859;55.132;-1.586;2024-03-02T11:06:49;10.10;;;5.30;;
71164;SDS011;58859;55.132;-1.586;2024-03-02T11:09:16;7.70;;;4.70;;
71164;SDS011;58859;55.132;-1.586;2024-03-02T11:11:44;9.15;;;4.38;;
71164;SDS011;58859;55.132;-1.586;2024-03-02T11:14:14;7.67;;;4.03;;
71164;SDS011;58859;55.132;-1.586;2024-03-02T11:16:42;8.57;;;4.38;;
71164;SDS011;58859;55.132;-1.586;2024-03-02T11:19:10;10.55;;;4.40;;
71164;SDS011;58859;55.132;-1.586;2024-03-02T11:21:37;8.00;;;4.32;;
71164;SDS011;58859;55.132;-1.586;2024-03-02T11:26:49;7.93;;;4.57;;
71164;SDS011;58859;55.132;-1.586;2024-03-02T11:32:00;4.25;;;2.80;;
71164;SDS011;58859;55.132;-1.586;2024-03-02T11:34:35;4.50;;;2.72;;
71164;SDS011;58859;55.132;-1.586;2024-03-02T11:37:04;5.47;;;2.63;;
71164;SDS011;58859;55.132;-1.586;2024-03-02T11:39:30;3.87;;;2.23;;
71164;SDS011;58859;55.132;-1.586;2024-03-02T11:41:56;3.00;;;1.63;;
71164;SDS011;58859;55.132;-1.586;2024-03-02T11:44:22;1.67;;;1.27;;
71164;SDS011;58859;55.132;-1.586;2024-03-02T11:47:00;4.80;;;1.80;;
71164;SDS011;58859;55.132;-1.586;2024-03-02T11:49:39;1.83;;;1.17;;
71164;SDS011;58859;55.132;-1.586;2024-03-02T11:52:14;3.45;;;1.77;;
71164;SDS011;58859;55.132;-1.586;2024-03-02T11:54:42;2.75;;;1.30;;
71164;SDS011;58859;55.132;-1.586;2024-03-02T11:57:15;1.83;;;1.17;;
71164;SDS011;58859;55.132;-1.586;2024-03-02T11:59:42;2.75;;;1.33;;
71164;SDS011;58859;55.132;-1.586;2024-03-02T12:02:29;2.60;;;1.20;;
71164;SDS011;58859;55.132;-1.586;2024-03-02T12:04:54;3.53;;;1.13;;
71164;SDS011;58859;55.132;-1.586;2024-03-02T12:07:20;1.95;;;1.15;;
71164;SDS011;58859;55.132;-1.586;2024-03-02T12:09:47;1.75;;;0.95;;
71164;SDS011;58859;55.132;-1.586;2024-03-02T12:12:13;3.22;;;1.10;;
71164;SDS011;58859;55.132;-1.586;2024-03-02T12:14:49;1.42;;;0.82;;
71164;SDS011;58859;55.132;-1.586;2024-03-02T12:17:16;2.10;;;1.40;;
71164;SDS011;58859;55.132;-1.586;2024-03-02T12:19:41;1.25;;;0.82;;
71164;SDS011;58859;55.132;-1.586;2024-03-02T12:22:07;1.90;;;1.10;;
71164;SDS011;58859;55.132;-1.586;2024-03-02T12:24:32;1.93;;;1.20;;
71164;SDS011;58859;55.132;-1.586;2024-03-02T12:26:57;2.70;;;0.73;;
71164;SDS011;58859;55.132;-1.586;2024-03-02T12:29:23;0.88;;;0.60;;
71164;SDS011;58859;55.132;-1.586;2024-03-02T12:31:50;1.73;;;0.70;;
71164;SDS011;58859;55.132;-1.586;2024-03-02T12:34:17;1.80;;;0.50;;
71164;SDS011;58859;55.132;-1.586;2024-03-02T12:36:43;1.38;;;0.60;;
71164;SDS011;58859;55.132;-1.586;2024-03-02T12:39:12;3.03;;;1.10;;
71164;SDS011;58859;55.132;-1.586;2024-03-02T12:41:38;0.95;;;0.77;;
71164;SDS011;58859;55.132;-1.586;2024-03-02T12:44:07;0.70;;;0.50;;
71164;SDS011;58859;55.132;-1.586;2024-03-02T12:46:33;1.13;;;0.50;;
71164;SDS011;58859;55.132;-1.586;2024-03-02T12:49:22;1.92;;;0.82;;
71164;SDS011;58859;55.132;-1.586;2024-03-02T12:51:47;4.00;;;0.70;;
71164;SDS011;58859;55.132;-1.586;2024-03-02T12:54:17;0.68;;;0.50;;
71164;SDS011;58859;55.132;-1.586;2024-03-02T12:56:43;3.63;;;0.77;;
71164;SDS011;58859;55.132;-1.586;2024-03-02T12:59:18;0.95;;;0.50;;
71164;SDS011;58859;55.132;-1.586;2024-03-02T13:01:51;1.00;;;0.60;;
71164;SDS011;58859;55.132;-1.586;2024-03-02T13:04:26;1.50;;;0.50;;
71164;SDS011;58859;55.132;-1.586;2024-03-02T13:06:56;3.60;;;0.68;;
71164;SDS011;58859;55.132;-1.586;2024-03-02T13:09:22;1.53;;;0.60;;
71164;SDS011;58859;55.132;-1.586;2024-03-02T13:11:48;2.15;;;0.80;;
71164;SDS011;58859;55.132;-1.586;2024-03-02T13:14:14;3.50;;;0.82;;
71164;SDS011;58859;55.132;-1.586;2024-03-02T13:16:40;3.93;;;0.63;;
71164;SDS011;58859;55.132;-1.586;2024-03-02T13:19:10;0.65;;;0.65;;
71164;SDS011;58859;55.132;-1.586;2024-03-02T13:21:36;4.85;;;1.02;;
71164;SDS011;58859;55.132;-1.586;2024-03-02T13:24:02;3.80;;;1.10;;
71164;SDS011;58859;55.132;-1.586;2024-03-02T13:26:28;3.40;;;1.15;;
71164;SDS011;58859;55.132;-1.586;2024-03-02T13:28:54;4.80;;;1.10;;
71164;SDS011;58859;55.132;-1.586;2024-03-02T13:31:19;4.77;;;1.73;;
71164;SDS011;58859;55.132;-1.586;2024-03-02T13:33:46;3.08;;;1.08;;
71164;SDS011;58859;55.132;-1.586;2024-03-02T13:36:11;4.20;;;1.17;;
71164;SDS011;58859;55.132;-1.586;2024-03-02T13:38:37;5.45;;;1.30;;
71164;SDS011;58859;55.132;-1.586;2024-03-02T13:41:03;4.57;;;1.10;;
71164;SDS011;58859;55.132;-1.586;2024-03-02T13:43:28;5.90;;;0.90;;
71164;SDS011;58859;55.132;-1.586;2024-03-02T13:45:57;3.50;;;0.85;;
71164;SDS011;58859;55.132;-1.586;2024-03-02T13:48:23;3.50;;;1.23;;
71164;SDS011;58859;55.132;-1.586;2024-03-02T13:50:51;3.33;;;1.13;;
71164;SDS011;58859;55.132;-1.586;2024-03-02T13:53:17;4.95;;;1.15;;
71164;SDS011;58859;55.132;-1.586;2024-03-02T13:55:43;5.72;;;1.08;;
71164;SDS011;58859;55.132;-1.586;2024-03-02T13:58:09;6.13;;;0.93;;
71164;SDS011;58859;55.132;-1.586;2024-03-02T14:00:36;8.30;;;1.48;;
71164;SDS011;58859;55.132;-1.586;2024-03-02T14:03:02;3.15;;;1.55;;
71164;SDS011;58859;55.132;-1.586;2024-03-02T14:05:28;5.00;;;0.75;;
71164;SDS011;58859;55.132;-1.586;2024-03-02T14:07:54;2.80;;;1.00;;
71164;SDS011;58859;55.132;-1.586;2024-03-02T14:10:19;7.33;;;1.57;;
71164;SDS011;58859;55.132;-1.586;2024-03-02T14:12:48;3.70;;;1.27;;
71164;SDS011;58859;55.132;-1.586;2024-03-02T14:15:13;0.90;;;0.90;;
71164;SDS011;58859;55.132;-1.586;2024-03-02T14:17:39;3.93;;;1.23;;
71164;SDS011;58859;55.132;-1.586;2024-03-02T14:20:05;4.35;;;1.10;;
71164;SDS011;58859;55.132;-1.586;2024-03-02T14:22:31;6.57;;;2.10;;
71164;SDS011;58859;55.132;-1.586;2024-03-02T14:24:57;4.95;;;1.30;;
71164;SDS011;58859;55.132;-1.586;2024-03-02T14:27:22;5.00;;;1.90;;
71164;SDS011;58859;55.132;-1.586;2024-03-02T14:29:48;3.42;;;1.45;;
71164;SDS011;58859;55.132;-1.586;2024-03-02T14:32:13;7.27;;;1.77;;